sensor_id;sensor_type;location;lat;lon;timestamp;P1;durP1;ratioP1;P2;durP2;ratioP2
11835;SDS011;5977;51.972;7.640;2024-03-17T00:00:25;132.53;;;45.00;;
11835;SDS011;5977;51.972;7.640;2024-03-17T00:02:52;132.40;;;44.90;;
11835;SDS011;5977;51.972;7.640;2024-03-17T00:05:18;131.80;;;44.67;;
11835;SDS011;5977;51.972;7.640;2024-03-17T00:07:46;132.20;;;44.90;;
11835;SDS011;5977;51.972;7.640;2024-03-17T00:10:12;132.13;;;44.77;;
11835;SDS011;5977;51.972;7.640;2024-03-17T00:12:40;131.87;;;44.73;;
11835;SDS011;5977;51.972;7.640;2024-03-17T00:15:07;131.57;;;44.50;;
11835;SDS011;5977;51.972;7.640;2024-03-17T00:17:35;132.20;;;44.83;;
11835;SDS011;5977;51.972;7.640;2024-03-17T00:20:02;131.77;;;44.70;;
11835;SDS011;5977;51.972;7.640;2024-03-17T00:22:34;132.10;;;44.73;;
11835;SDS011;5977;51.972;7.640;2024-03-17T00:25:06;131.67;;;44.53;;
11835;SDS011;5977;51.972;7.640;2024-03-17T00:27:34;131.97;;;44.80;;
11835;SDS011;5977;51.972;7.640;2024-03-17T00:30:05;131.43;;;44.50;;
11835;SDS011;5977;51.972;7.640;2024-03-17T00:32:35;131.40;;;44.63;;
11835;SDS011;5977;51.972;7.640;2024-03-17T00:35:01;131.57;;;44.60;;
11835;SDS011;5977;51.972;7.640;2024-03-17T00:37:30;131.47;;;44.60;;
11835;SDS011;5977;51.972;7.640;2024-03-17T00:39:56;131.10;;;44.50;;
11835;SDS011;5977;51.972;7.640;2024-03-17T00:42:24;131.30;;;44.50;;
11835;SDS011;5977;51.972;7.640;2024-03-17T00:44:50;131.67;;;44.67;;
11835;SDS011;5977;51.972;7.640;2024-03-17T00:47:17;131.33;;;44.60;;
11835;SDS011;5977;51.972;7.640;2024-03-17T00:49:43;130.87;;;44.40;;
11835;SDS011;5977;51.972;7.640;2024-03-17T00:52:10;131.10;;;44.43;;
11835;SDS011;5977;51.972;7.640;2024-03-17T00:54:36;130.47;;;44.27;;
11835;SDS011;5977;51.972;7.640;2024-03-17T00:57:03;130.17;;;44.23;;
11835;SDS011;5977;51.972;7.640;2024-03-17T00:59:31;130.17;;;44.17;;
11835;SDS011;5977;51.972;7.640;2024-03-17T01:01:58;130.80;;;44.30;;
11835;SDS011;5977;51.972;7.640;2024-03-17T01:04:24;130.40;;;44.20;;
11835;SDS011;5977;51.972;7.640;2024-03-17T01:06:51;131.03;;;44.53;;
11835;SDS011;5977;51.972;7.640;2024-03-17T01:09:17;130.47;;;44.30;;
11835;SDS011;5977;51.972;7.640;2024-03-17T01:11:44;130.93;;;44.50;;
11835;SDS011;5977;51.972;7.640;2024-03-17T01:14:10;130.30;;;44.13;;
11835;SDS011;5977;51.972;7.640;2024-03-17T01:16:39;131.10;;;44.60;;
11835;SDS011;5977;51.972;7.640;2024-03-17T01:19:05;130.80;;;44.43;;
11835;SDS011;5977;51.972;7.640;2024-03-17T01:21:32;130.27;;;44.27;;
11835;SDS011;5977;51.972;7.640;2024-03-17T01:23:59;130.63;;;44.40;;
11835;SDS011;5977;51.972;7.640;2024-03-17T01:26:26;130.47;;;44.27;;
11835;SDS011;5977;51.972;7.640;2024-03-17T01:28:52;130.00;;;44.20;;
11835;SDS011;5977;51.972;7.640;2024-03-17T01:31:19;130.17;;;44.20;;
11835;SDS011;5977;51.972;7.640;2024-03-17T01:33:46;129.80;;;44.10;;
11835;SDS011;5977;51.972;7.640;2024-03-17T01:36:13;129.93;;;44.20;;
11835;SDS011;5977;51.972;7.640;2024-03-17T01:38:39;130.50;;;44.37;;
11835;SDS011;5977;51.972;7.640;2024-03-17T01:41:06;130.07;;;44.30;;
11835;SDS011;5977;51.972;7.640;2024-03-17T01:43:32;130.27;;;44.37;;
11835;SDS011;5977;51.972;7.640;2024-03-17T01:45:59;129.67;;;44.20;;
11835;SDS011;5977;51.972;7.640;2024-03-17T01:48:26;129.37;;;44.10;;
11835;SDS011;5977;51.972;7.640;2024-03-17T01:50:55;129.20;;;43.90;;
11835;SDS011;5977;51.972;7.640;2024-03-17T01:53:22;129.63;;;44.17;;
11835;SDS011;5977;51.972;7.640;2024-03-17T01:55:51;129.37;;;43.97;;
11835;SDS011;5977;51.972;7.640;2024-03-17T01:58:20;129.63;;;44.13;;
11835;SDS011;5977;51.972;7.640;2024-03-17T02:00:51;129.50;;;44.07;;
11835;SDS011;5977;51.972;7.640;2024-03-17T02:03:17;129.10;;;43.97;;
11835;SDS011;5977;51.972;7.640;2024-03-17T02:05:44;129.43;;;44.03;;
11835;SDS011;5977;51.972;7.640;2024-03-17T02:08:12;129.03;;;43.97;;
11835;SDS011;5977;51.972;7.640;2024-03-17T02:10:39;129.53;;;44.20;;
11835;SDS011;5977;51.972;7.640;2024-03-17T02:13:05;128.83;;;43.90;;
11835;SDS011;5977;51.972;7.640;2024-03-17T02:15:32;129.07;;;43.90;;
11835;SDS011;5977;51.972;7.640;2024-03-17T02:17:58;128.97;;;44.00;;
11835;SDS011;5977;51.972;7.640;2024-03-17T02:20:26;129.57;;;44.17;;
11835;SDS011;5977;51.972;7.640;2024-03-17T02:23:08;128.73;;;43.97;;
11835;SDS011;5977;51.972;7.640;2024-03-17T02:25:35;129.17;;;44.00;;
11835;SDS011;5977;51.972;7.640;2024-03-17T02:28:01;128.97;;;43.87;;
11835;SDS011;5977;51.972;7.640;2024-03-17T02:30:28;128.63;;;43.83;;
11835;SDS011;5977;51.972;7.640;2024-03-17T02:32:54;128.60;;;43.90;;
11835;SDS011;5977;51.972;7.640;2024-03-17T02:35:21;129.10;;;44.10;;
11835;SDS011;5977;51.972;7.640;2024-03-17T02:37:48;128.43;;;43.80;;
11835;SDS011;5977;51.972;7.640;2024-03-17T02:40:16;129.00;;;43.90;;
11835;SDS011;5977;51.972;7.640;2024-03-17T02:42:44;128.63;;;43.90;;
11835;SDS011;5977;51.972;7.640;2024-03-17T02:45:10;128.57;;;43.87;;
11835;SDS011;5977;51.972;7.640;2024-03-17T02:47:38;129.23;;;44.10;;
11835;SDS011;5977;51.972;7.640;2024-03-17T02:50:05;128.13;;;43.70;;
11835;SDS011;5977;51.972;7.640;2024-03-17T02:52:34;128.70;;;43.77;;
11835;SDS011;5977;51.972;7.640;2024-03-17T02:55:01;128.03;;;43.60;;
11835;SDS011;5977;51.972;7.640;2024-03-17T02:57:29;129.50;;;44.13;;
11835;SDS011;5977;51.972;7.640;2024-03-17T02:59:57;128.53;;;43.83;;
11835;SDS011;5977;51.972;7.640;2024-03-17T03:02:24;128.13;;;43.70;;
11835;SDS011;5977;51.972;7.640;2024-03-17T03:04:51;128.70;;;43.97;;
11835;SDS011;5977;51.972;7.640;2024-03-17T03:07:18;128.17;;;43.70;;
11835;SDS011;5977;51.972;7.640;2024-03-17T03:09:45;128.43;;;43.90;;
11835;SDS011;5977;51.972;7.640;2024-03-17T03:12:12;128.47;;;43.90;;
11835;SDS011;5977;51.972;7.640;2024-03-17T03:14:40;128.20;;;43.90;;
11835;SDS011;5977;51.972;7.640;2024-03-17T03:17:07;127.83;;;43.70;;
11835;SDS011;5977;51.972;7.640;2024-03-17T03:19:35;128.03;;;43.70;;
11835;SDS011;5977;51.972;7.640;2024-03-17T03:22:02;127.70;;;43.70;;
11835;SDS011;5977;51.972;7.640;2024-03-17T03:24:29;128.10;;;43.77;;
11835;SDS011;5977;51.972;7.640;2024-03-17T03:26:56;127.97;;;43.90;;
11835;SDS011;5977;51.972;7.640;2024-03-17T03:29:23;127.87;;;43.70;;
11835;SDS011;5977;51.972;7.640;2024-03-17T03:31:51;127.63;;;43.63;;
11835;SDS011;5977;51.972;7.640;2024-03-17T03:34:18;127.40;;;43.57;;
11835;SDS011;5977;51.972;7.640;2024-03-17T03:36:45;127.87;;;43.80;;
11835;SDS011;5977;51.972;7.640;2024-03-17T03:39:12;127.73;;;43.67;;
11835;SDS011;5977;51.972;7.640;2024-03-17T03:41:39;128.03;;;43.83;;
11835;SDS011;5977;51.972;7.640;2024-03-17T03:44:06;127.73;;;43.80;;
11835;SDS011;5977;51.972;7.640;2024-03-17T03:46:35;127.40;;;43.70;;
11835;SDS011;5977;51.972;7.640;2024-03-17T03:49:04;127.80;;;43.73;;
11835;SDS011;5977;51.972;7.640;2024-03-17T03:51:31;127.80;;;43.80;;
11835;SDS011;5977;51.972;7.640;2024-03-17T03:53:58;127.57;;;43.70;;
11835;SDS011;5977;51.972;7.640;2024-03-17T03:56:25;127.43;;;43.67;;
11835;SDS011;5977;51.972;7.640;2024-03-17T03:58:52;127.43;;;43.67;;
11835;SDS011;5977;51.972;7.640;2024-03-17T04:01:19;127.03;;;43.50;;
11835;SDS011;5977;51.972;7.640;2024-03-17T04:03:47;127.57;;;43.70;;
11835;SDS011;5977;51.972;7.640;2024-03-17T04:06:16;127.53;;;43.57;;
11835;SDS011;5977;51.972;7.640;2024-03-17T04:08:43;127.37;;;43.60;;
11835;SDS011;5977;51.972;7.640;2024-03-17T04:11:10;127.40;;;43.57;;
11835;SDS011;5977;51.972;7.640;2024-03-17T04:13:37;127.03;;;43.50;;
11835;SDS011;5977;51.972;7.640;2024-03-17T04:16:05;127.00;;;43.57;;
11835;SDS011;5977;51.972;7.640;2024-03-17T04:18:33;127.40;;;43.80;;
11835;SDS011;5977;51.972;7.640;2024-03-17T04:21:01;126.90;;;43.40;;
11835;SDS011;5977;51.972;7.640;2024-03-17T04:23:30;127.37;;;43.60;;
11835;SDS011;5977;51.972;7.640;2024-03-17T04:25:57;127.60;;;43.70;;
11835;SDS011;5977;51.972;7.640;2024-03-17T04:28:25;126.73;;;43.40;;
11835;SDS011;5977;51.972;7.640;2024-03-17T04:30:52;126.60;;;43.40;;
11835;SDS011;5977;51.972;7.640;2024-03-17T04:33:19;126.57;;;43.40;;
11835;SDS011;5977;51.972;7.640;2024-03-17T04:35:46;126.80;;;43.50;;
11835;SDS011;5977;51.972;7.640;2024-03-17T04:38:13;127.03;;;43.50;;
11835;SDS011;5977;51.972;7.640;2024-03-17T04:40:43;126.77;;;43.40;;
11835;SDS011;5977;51.972;7.640;2024-03-17T04:43:10;127.13;;;43.63;;
11835;SDS011;5977;51.972;7.640;2024-03-17T04:45:36;127.03;;;43.67;;
11835;SDS011;5977;51.972;7.640;2024-03-17T04:48:04;126.73;;;43.43;;
11835;SDS011;5977;51.972;7.640;2024-03-17T04:50:32;126.80;;;43.50;;
11835;SDS011;5977;51.972;7.640;2024-03-17T04:52:59;126.90;;;43.50;;
11835;SDS011;5977;51.972;7.640;2024-03-17T04:55:25;126.97;;;43.50;;
11835;SDS011;5977;51.972;7.640;2024-03-17T04:57:55;126.77;;;43.50;;
11835;SDS011;5977;51.972;7.640;2024-03-17T05:00:22;126.67;;;43.50;;
11835;SDS011;5977;51.972;7.640;2024-03-17T05:02:49;126.90;;;43.57;;
11835;SDS011;5977;51.972;7.640;2024-03-17T05:05:16;126.70;;;43.50;;
11835;SDS011;5977;51.972;7.640;2024-03-17T05:07:43;127.23;;;43.70;;
11835;SDS011;5977;51.972;7.640;2024-03-17T05:10:10;127.00;;;43.50;;
11835;SDS011;5977;51.972;7.640;2024-03-17T05:12:37;126.53;;;43.53;;
11835;SDS011;5977;51.972;7.640;2024-03-17T05:15:05;126.80;;;43.63;;
11835;SDS011;5977;51.972;7.640;2024-03-17T05:17:33;126.17;;;43.40;;
11835;SDS011;5977;51.972;7.640;2024-03-17T05:20:00;126.90;;;43.50;;
11835;SDS011;5977;51.972;7.640;2024-03-17T05:22:28;126.73;;;43.53;;
11835;SDS011;5977;51.972;7.640;2024-03-17T05:24:55;127.00;;;43.63;;
11835;SDS011;5977;51.972;7.640;2024-03-17T05:27:22;127.37;;;43.70;;
11835;SDS011;5977;51.972;7.640;2024-03-17T05:29:49;127.00;;;43.60;;
11835;SDS011;5977;51.972;7.640;2024-03-17T05:32:17;126.47;;;43.50;;
11835;SDS011;5977;51.972;7.640;2024-03-17T05:34:44;126.87;;;43.67;;
11835;SDS011;5977;51.972;7.640;2024-03-17T05:37:12;126.93;;;43.63;;
11835;SDS011;5977;51.972;7.640;2024-03-17T05:39:39;126.37;;;43.40;;
11835;SDS011;5977;51.972;7.640;2024-03-17T05:42:06;126.67;;;43.70;;
11835;SDS011;5977;51.972;7.640;2024-03-17T05:44:33;126.73;;;43.50;;
11835;SDS011;5977;51.972;7.640;2024-03-17T05:47:15;126.27;;;43.40;;
11835;SDS011;5977;51.972;7.640;2024-03-17T05:49:44;126.20;;;43.40;;
11835;SDS011;5977;51.972;7.640;2024-03-17T05:52:12;126.47;;;43.50;;
11835;SDS011;5977;51.972;7.640;2024-03-17T05:54:39;126.47;;;43.50;;
11835;SDS011;5977;51.972;7.640;2024-03-17T05:57:05;126.57;;;43.50;;
11835;SDS011;5977;51.972;7.640;2024-03-17T05:59:34;126.30;;;43.50;;
11835;SDS011;5977;51.972;7.640;2024-03-17T06:02:01;126.63;;;43.60;;
11835;SDS011;5977;51.972;7.640;2024-03-17T06:04:30;126.43;;;43.60;;
11835;SDS011;5977;51.972;7.640;2024-03-17T06:06:56;126.37;;;43.50;;
11835;SDS011;5977;51.972;7.640;2024-03-17T06:10:16;126.43;;;43.53;;
11835;SDS011;5977;51.972;7.640;2024-03-17T06:12:43;126.37;;;43.50;;
11835;SDS011;5977;51.972;7.640;2024-03-17T06:15:10;126.13;;;43.40;;
11835;SDS011;5977;51.972;7.640;2024-03-17T06:20:34;126.17;;;43.40;;
11835;SDS011;5977;51.972;7.640;2024-03-17T06:24:54;126.13;;;43.37;;
11835;SDS011;5977;51.972;7.640;2024-03-17T06:27:21;125.63;;;43.20;;
11835;SDS011;5977;51.972;7.640;2024-03-17T06:29:49;126.60;;;43.50;;
11835;SDS011;5977;51.972;7.640;2024-03-17T06:32:16;127.00;;;43.60;;
11835;SDS011;5977;51.972;7.640;2024-03-17T06:34:43;126.53;;;43.50;;
11835;SDS011;5977;51.972;7.640;2024-03-17T06:37:10;126.60;;;43.53;;
11835;SDS011;5977;51.972;7.640;2024-03-17T06:39:37;126.63;;;43.57;;
11835;SDS011;5977;51.972;7.640;2024-03-17T06:42:06;127.60;;;43.83;;
11835;SDS011;5977;51.972;7.640;2024-03-17T06:44:34;127.13;;;43.60;;
11835;SDS011;5977;51.972;7.640;2024-03-17T06:47:01;127.77;;;43.90;;
11835;SDS011;5977;51.972;7.640;2024-03-17T06:49:28;127.93;;;43.90;;
11835;SDS011;5977;51.972;7.640;2024-03-17T06:51:56;127.40;;;43.70;;
11835;SDS011;5977;51.972;7.640;2024-03-17T06:54:23;127.90;;;43.90;;
11835;SDS011;5977;51.972;7.640;2024-03-17T06:56:50;127.83;;;43.90;;
11835;SDS011;5977;51.972;7.640;2024-03-17T06:59:18;127.97;;;43.90;;
11835;SDS011;5977;51.972;7.640;2024-03-17T07:01:46;128.77;;;44.17;;
11835;SDS011;5977;51.972;7.640;2024-03-17T07:04:13;128.40;;;44.00;;
11835;SDS011;5977;51.972;7.640;2024-03-17T07:06:40;129.53;;;44.40;;
11835;SDS011;5977;51.972;7.640;2024-03-17T07:09:07;130.10;;;44.53;;
11835;SDS011;5977;51.972;7.640;2024-03-17T07:11:34;130.57;;;44.67;;
11835;SDS011;5977;51.972;7.640;2024-03-17T07:14:01;129.97;;;44.50;;
11835;SDS011;5977;51.972;7.640;2024-03-17T07:16:31;130.50;;;44.60;;
11835;SDS011;5977;51.972;7.640;2024-03-17T07:18:58;131.20;;;44.90;;
11835;SDS011;5977;51.972;7.640;2024-03-17T07:21:28;131.77;;;45.00;;
11835;SDS011;5977;51.972;7.640;2024-03-17T07:23:55;132.10;;;45.10;;
11835;SDS011;5977;51.972;7.640;2024-03-17T07:26:24;132.53;;;45.30;;
11835;SDS011;5977;51.972;7.640;2024-03-17T07:28:51;132.37;;;45.20;;
11835;SDS011;5977;51.972;7.640;2024-03-17T07:31:18;132.30;;;45.10;;
11835;SDS011;5977;51.972;7.640;2024-03-17T07:33:47;132.37;;;45.10;;
11835;SDS011;5977;51.972;7.640;2024-03-17T07:36:14;132.67;;;45.13;;
11835;SDS011;5977;51.972;7.640;2024-03-17T07:38:41;132.10;;;45.10;;
11835;SDS011;5977;51.972;7.640;2024-03-17T07:41:08;132.57;;;45.23;;
11835;SDS011;5977;51.972;7.640;2024-03-17T07:43:36;131.87;;;44.97;;
11835;SDS011;5977;51.972;7.640;2024-03-17T07:46:05;130.90;;;44.70;;
11835;SDS011;5977;51.972;7.640;2024-03-17T07:48:33;132.30;;;45.10;;
11835;SDS011;5977;51.972;7.640;2024-03-17T07:51:03;131.83;;;44.97;;
11835;SDS011;5977;51.972;7.640;2024-03-17T07:53:31;131.83;;;45.00;;
11835;SDS011;5977;51.972;7.640;2024-03-17T07:56:00;131.53;;;44.90;;
11835;SDS011;5977;51.972;7.640;2024-03-17T07:58:29;131.60;;;45.00;;
11835;SDS011;5977;51.972;7.640;2024-03-17T08:00:58;131.33;;;44.87;;
11835;SDS011;5977;51.972;7.640;2024-03-17T08:03:26;131.50;;;44.90;;
11835;SDS011;5977;51.972;7.640;2024-03-17T08:05:53;131.70;;;45.00;;
11835;SDS011;5977;51.972;7.640;2024-03-17T08:08:21;132.50;;;45.20;;
11835;SDS011;5977;51.972;7.640;2024-03-17T08:10:48;133.00;;;45.27;;
11835;SDS011;5977;51.972;7.640;2024-03-17T08:13:16;134.00;;;45.70;;
11835;SDS011;5977;51.972;7.640;2024-03-17T08:15:43;134.10;;;45.70;;
11835;SDS011;5977;51.972;7.640;2024-03-17T08:18:11;135.00;;;45.90;;
11835;SDS011;5977;51.972;7.640;2024-03-17T08:20:38;136.43;;;46.40;;
11835;SDS011;5977;51.972;7.640;2024-03-17T08:23:06;137.10;;;46.67;;
11835;SDS011;5977;51.972;7.640;2024-03-17T08:25:34;138.07;;;46.90;;
11835;SDS011;5977;51.972;7.640;2024-03-17T08:28:01;137.60;;;46.83;;
11835;SDS011;5977;51.972;7.640;2024-03-17T08:30:29;138.57;;;47.00;;
11835;SDS011;5977;51.972;7.640;2024-03-17T08:32:56;138.37;;;46.97;;
11835;SDS011;5977;51.972;7.640;2024-03-17T08:35:23;139.03;;;47.17;;
11835;SDS011;5977;51.972;7.640;2024-03-17T08:37:50;139.00;;;47.23;;
11835;SDS011;5977;51.972;7.640;2024-03-17T08:40:19;138.60;;;47.10;;
11835;SDS011;5977;51.972;7.640;2024-03-17T08:42:48;139.07;;;47.30;;
11835;SDS011;5977;51.972;7.640;2024-03-17T08:45:15;139.17;;;47.23;;
11835;SDS011;5977;51.972;7.640;2024-03-17T08:47:42;139.07;;;47.23;;
11835;SDS011;5977;51.972;7.640;2024-03-17T08:50:09;139.50;;;47.30;;
11835;SDS011;5977;51.972;7.640;2024-03-17T08:52:37;139.27;;;47.40;;
11835;SDS011;5977;51.972;7.640;2024-03-17T08:55:05;139.97;;;47.60;;
11835;SDS011;5977;51.972;7.640;2024-03-17T08:57:35;140.97;;;47.70;;
11835;SDS011;5977;51.972;7.640;2024-03-17T09:00:04;140.20;;;47.67;;
11835;SDS011;5977;51.972;7.640;2024-03-17T09:02:34;140.57;;;47.87;;
11835;SDS011;5977;51.972;7.640;2024-03-17T09:05:01;139.73;;;47.47;;
11835;SDS011;5977;51.972;7.640;2024-03-17T09:07:29;140.37;;;47.77;;
11835;SDS011;5977;51.972;7.640;2024-03-17T09:09:56;140.30;;;47.67;;
11835;SDS011;5977;51.972;7.640;2024-03-17T09:12:24;140.17;;;47.57;;
11835;SDS011;5977;51.972;7.640;2024-03-17T09:14:52;141.03;;;47.80;;
11835;SDS011;5977;51.972;7.640;2024-03-17T09:17:21;140.00;;;47.60;;
11835;SDS011;5977;51.972;7.640;2024-03-17T09:19:48;140.43;;;47.73;;
11835;SDS011;5977;51.972;7.640;2024-03-17T09:22:15;139.90;;;47.60;;
11835;SDS011;5977;51.972;7.640;2024-03-17T09:24:42;139.93;;;47.50;;
11835;SDS011;5977;51.972;7.640;2024-03-17T09:27:09;139.47;;;47.17;;
11835;SDS011;5977;51.972;7.640;2024-03-17T09:29:36;140.10;;;47.60;;
11835;SDS011;5977;51.972;7.640;2024-03-17T09:32:03;139.77;;;47.37;;
11835;SDS011;5977;51.972;7.640;2024-03-17T09:34:31;139.23;;;47.20;;
11835;SDS011;5977;51.972;7.640;2024-03-17T09:36:59;139.37;;;47.17;;
11835;SDS011;5977;51.972;7.640;2024-03-17T09:39:26;138.70;;;46.90;;
11835;SDS011;5977;51.972;7.640;2024-03-17T09:41:53;138.13;;;46.90;;
11835;SDS011;5977;51.972;7.640;2024-03-17T09:44:20;138.67;;;46.97;;
11835;SDS011;5977;51.972;7.640;2024-03-17T09:46:47;138.80;;;47.03;;
11835;SDS011;5977;51.972;7.640;2024-03-17T09:49:15;138.80;;;46.90;;
11835;SDS011;5977;51.972;7.640;2024-03-17T09:51:44;139.23;;;47.17;;
11835;SDS011;5977;51.972;7.640;2024-03-17T09:54:16;139.57;;;47.27;;
11835;SDS011;5977;51.972;7.640;2024-03-17T09:56:45;139.87;;;47.40;;
11835;SDS011;5977;51.972;7.640;2024-03-17T09:59:12;140.03;;;47.50;;
11835;SDS011;5977;51.972;7.640;2024-03-17T10:01:39;140.10;;;47.60;;
11835;SDS011;5977;51.972;7.640;2024-03-17T10:04:08;139.93;;;47.60;;
11835;SDS011;5977;51.972;7.640;2024-03-17T10:06:44;140.53;;;47.67;;
11835;SDS011;5977;51.972;7.640;2024-03-17T10:09:15;139.80;;;47.47;;
11835;SDS011;5977;51.972;7.640;2024-03-17T10:11:46;140.13;;;47.60;;
11835;SDS011;5977;51.972;7.640;2024-03-17T10:14:16;140.73;;;47.80;;
11835;SDS011;5977;51.972;7.640;2024-03-17T10:16:44;140.57;;;47.77;;
11835;SDS011;5977;51.972;7.640;2024-03-17T10:19:11;140.07;;;47.43;;
11835;SDS011;5977;51.972;7.640;2024-03-17T10:21:40;141.20;;;47.93;;
11835;SDS011;5977;51.972;7.640;2024-03-17T10:24:14;140.73;;;47.77;;
11835;SDS011;5977;51.972;7.640;2024-03-17T10:26:47;140.30;;;47.57;;
11835;SDS011;5977;51.972;7.640;2024-03-17T10:29:20;140.33;;;47.70;;
11835;SDS011;5977;51.972;7.640;2024-03-17T10:31:50;141.10;;;47.97;;
11835;SDS011;5977;51.972;7.640;2024-03-17T10:34:18;140.97;;;47.90;;
11835;SDS011;5977;51.972;7.640;2024-03-17T10:36:45;141.10;;;47.87;;
11835;SDS011;5977;51.972;7.640;2024-03-17T10:39:24;140.77;;;47.57;;
11835;SDS011;5977;51.972;7.640;2024-03-17T10:41:57;141.03;;;47.90;;
11835;SDS011;5977;51.972;7.640;2024-03-17T10:44:25;140.17;;;47.47;;
11835;SDS011;5977;51.972;7.640;2024-03-17T10:46:54;140.73;;;47.70;;
11835;SDS011;5977;51.972;7.640;2024-03-17T10:49:23;140.77;;;47.90;;
11835;SDS011;5977;51.972;7.640;2024-03-17T10:51:55;140.57;;;47.63;;
11835;SDS011;5977;51.972;7.640;2024-03-17T10:54:25;140.50;;;47.63;;
11835;SDS011;5977;51.972;7.640;2024-03-17T10:56:54;140.10;;;47.50;;
11835;SDS011;5977;51.972;7.640;2024-03-17T10:59:24;140.13;;;47.47;;
11835;SDS011;5977;51.972;7.640;2024-03-17T11:02:01;140.33;;;47.53;;
11835;SDS011;5977;51.972;7.640;2024-03-17T11:04:29;140.53;;;47.57;;
11835;SDS011;5977;51.972;7.640;2024-03-17T11:06:56;140.73;;;47.63;;
11835;SDS011;5977;51.972;7.640;2024-03-17T11:09:27;140.43;;;47.53;;
11835;SDS011;5977;51.972;7.640;2024-03-17T11:11:54;140.53;;;47.70;;
11835;SDS011;5977;51.972;7.640;2024-03-17T11:14:22;140.93;;;47.77;;
11835;SDS011;5977;51.972;7.640;2024-03-17T11:16:49;141.17;;;47.90;;
11835;SDS011;5977;51.972;7.640;2024-03-17T11:19:16;141.17;;;47.83;;
11835;SDS011;5977;51.972;7.640;2024-03-17T11:21:44;141.03;;;47.70;;
11835;SDS011;5977;51.972;7.640;2024-03-17T11:24:18;140.77;;;47.77;;
11835;SDS011;5977;51.972;7.640;2024-03-17T11:26:47;140.60;;;47.67;;
11835;SDS011;5977;51.972;7.640;2024-03-17T11:31:58;139.80;;;47.27;;
11835;SDS011;5977;51.972;7.640;2024-03-17T11:34:31;140.60;;;47.60;;
11835;SDS011;5977;51.972;7.640;2024-03-17T11:36:59;139.87;;;47.37;;
11835;SDS011;5977;51.972;7.640;2024-03-17T11:42:24;140.47;;;47.47;;
11835;SDS011;5977;51.972;7.640;2024-03-17T11:44:56;140.73;;;47.70;;
11835;SDS011;5977;51.972;7.640;2024-03-17T11:47:32;140.57;;;47.60;;
11835;SDS011;5977;51.972;7.640;2024-03-17T11:50:04;139.57;;;47.27;;
11835;SDS011;5977;51.972;7.640;2024-03-17T11:52:33;140.00;;;47.33;;
11835;SDS011;5977;51.972;7.640;2024-03-17T11:55:01;140.70;;;47.60;;
11835;SDS011;5977;51.972;7.640;2024-03-17T11:57:28;140.37;;;47.57;;
11835;SDS011;5977;51.972;7.640;2024-03-17T11:59:55;140.27;;;47.53;;
11835;SDS011;5977;51.972;7.640;2024-03-17T12:02:23;140.43;;;47.47;;
11835;SDS011;5977;51.972;7.640;2024-03-17T12:04:51;140.47;;;47.60;;
11835;SDS011;5977;51.972;7.640;2024-03-17T12:07:18;140.60;;;47.60;;
11835;SDS011;5977;51.972;7.640;2024-03-17T12:09:49;140.67;;;47.60;;
11835;SDS011;5977;51.972;7.640;2024-03-17T12:12:16;140.37;;;47.53;;
11835;SDS011;5977;51.972;7.640;2024-03-17T12:14:46;139.67;;;47.23;;
11835;SDS011;5977;51.972;7.640;2024-03-17T12:17:14;140.43;;;47.50;;
11835;SDS011;5977;51.972;7.640;2024-03-17T12:19:47;139.80;;;47.30;;
11835;SDS011;5977;51.972;7.640;2024-03-17T12:22:15;140.17;;;47.40;;
11835;SDS011;5977;51.972;7.640;2024-03-17T12:24:47;139.87;;;47.30;;
11835;SDS011;5977;51.972;7.640;2024-03-17T12:27:16;139.93;;;47.37;;
11835;SDS011;5977;51.972;7.640;2024-03-17T12:29:44;139.77;;;47.13;;
11835;SDS011;5977;51.972;7.640;2024-03-17T12:32:13;140.20;;;47.47;;
11835;SDS011;5977;51.972;7.640;2024-03-17T12:34:41;140.37;;;47.50;;
11835;SDS011;5977;51.972;7.640;2024-03-17T12:37:08;140.00;;;47.30;;
11835;SDS011;5977;51.972;7.640;2024-03-17T12:39:42;139.70;;;47.30;;
11835;SDS011;5977;51.972;7.640;2024-03-17T12:42:09;140.20;;;47.37;;
11835;SDS011;5977;51.972;7.640;2024-03-17T12:44:38;140.23;;;47.50;;
11835;SDS011;5977;51.972;7.640;2024-03-17T12:47:07;139.53;;;47.23;;
11835;SDS011;5977;51.972;7.640;2024-03-17T12:49:44;139.63;;;47.23;;
11835;SDS011;5977;51.972;7.640;2024-03-17T12:52:15;140.10;;;47.37;;
11835;SDS011;5977;51.972;7.640;2024-03-17T12:54:44;140.33;;;47.40;;
11835;SDS011;5977;51.972;7.640;2024-03-17T12:57:20;140.57;;;47.53;;
11835;SDS011;5977;51.972;7.640;2024-03-17T13:00:16;140.20;;;47.37;;
11835;SDS011;5977;51.972;7.640;2024-03-17T13:02:59;140.47;;;47.57;;
11835;SDS011;5977;51.972;7.640;2024-03-17T13:05:27;140.77;;;47.83;;
11835;SDS011;5977;51.972;7.640;2024-03-17T13:07:55;140.70;;;47.70;;
11835;SDS011;5977;51.972;7.640;2024-03-17T13:10:23;140.40;;;47.50;;
11835;SDS011;5977;51.972;7.640;2024-03-17T13:12:58;141.20;;;47.90;;
11835;SDS011;5977;51.972;7.640;2024-03-17T13:15:27;140.77;;;47.57;;
11835;SDS011;5977;51.972;7.640;2024-03-17T13:17:56;141.10;;;47.60;;
11835;SDS011;5977;51.972;7.640;2024-03-17T13:20:23;140.03;;;47.40;;
11835;SDS011;5977;51.972;7.640;2024-03-17T13:22:52;140.80;;;47.57;;
11835;SDS011;5977;51.972;7.640;2024-03-17T13:25:20;141.20;;;47.93;;
11835;SDS011;5977;51.972;7.640;2024-03-17T13:27:49;140.50;;;47.50;;
11835;SDS011;5977;51.972;7.640;2024-03-17T13:30:18;141.07;;;47.77;;
11835;SDS011;5977;51.972;7.640;2024-03-17T13:32:47;140.30;;;47.40;;
11835;SDS011;5977;51.972;7.640;2024-03-17T13:35:21;140.17;;;47.33;;
11835;SDS011;5977;51.972;7.640;2024-03-17T13:37:51;141.17;;;47.80;;
11835;SDS011;5977;51.972;7.640;2024-03-17T13:40:19;140.70;;;47.60;;
11835;SDS011;5977;51.972;7.640;2024-03-17T13:42:48;140.57;;;47.57;;
11835;SDS011;5977;51.972;7.640;2024-03-17T13:45:16;140.23;;;47.43;;
11835;SDS011;5977;51.972;7.640;2024-03-17T13:47:46;140.57;;;47.50;;
11835;SDS011;5977;51.972;7.640;2024-03-17T13:50:16;140.07;;;47.23;;
11835;SDS011;5977;51.972;7.640;2024-03-17T13:52:43;140.37;;;47.50;;
11835;SDS011;5977;51.972;7.640;2024-03-17T13:55:12;141.00;;;47.63;;
11835;SDS011;5977;51.972;7.640;2024-03-17T13:57:41;140.93;;;47.70;;
11835;SDS011;5977;51.972;7.640;2024-03-17T14:00:09;140.43;;;47.43;;
11835;SDS011;5977;51.972;7.640;2024-03-17T14:02:41;140.53;;;47.53;;
11835;SDS011;5977;51.972;7.640;2024-03-17T14:05:08;141.00;;;47.73;;
11835;SDS011;5977;51.972;7.640;2024-03-17T14:07:38;141.47;;;47.90;;
11835;SDS011;5977;51.972;7.640;2024-03-17T14:10:05;141.17;;;47.73;;
11835;SDS011;5977;51.972;7.640;2024-03-17T14:12:35;141.03;;;47.63;;
11835;SDS011;5977;51.972;7.640;2024-03-17T14:15:03;140.97;;;47.80;;
11835;SDS011;5977;51.972;7.640;2024-03-17T14:17:31;141.27;;;47.90;;
11835;SDS011;5977;51.972;7.640;2024-03-17T14:19:58;141.77;;;48.10;;
11835;SDS011;5977;51.972;7.640;2024-03-17T14:22:25;141.93;;;48.07;;
11835;SDS011;5977;51.972;7.640;2024-03-17T14:24:52;141.93;;;48.10;;
11835;SDS011;5977;51.972;7.640;2024-03-17T14:27:19;142.27;;;48.33;;
11835;SDS011;5977;51.972;7.640;2024-03-17T14:29:48;141.30;;;47.83;;
11835;SDS011;5977;51.972;7.640;2024-03-17T14:32:16;141.87;;;48.00;;
11835;SDS011;5977;51.972;7.640;2024-03-17T14:34:43;141.30;;;47.80;;
11835;SDS011;5977;51.972;7.640;2024-03-17T14:37:10;141.83;;;48.03;;